Moorhead, MN

3:47 PM CST on February 11, 2016 (GMT -0600)
Moorhead Municipal | | Change Station
CLOSE
Current Station
Airport
Location: Moorhead,
Elevation: 919 ft
Nearby Weather Stations

Elev 919 ft 46.84 °N, 96.66 °W | Updated 16 minutes ago

Overcast
Overcast
14 °F
Feels Like 8 °F
N
4
Wind Variable Wind from WSW

Today
High -- | Low -- °F
--% Chance of Precip.
Yesterday
High -- | Low -- °F
Precip. -- in
Pressure 30.22 in
Visibility 10.0 miles
Clouds Overcast 2600 ft
Windchill 8 °F
Dew Point 3 °F
Humidity 62%
Rainfall 0.00 in
Snow Depth Not available.
7:37 AM 5:44 PM
Waxing Crescent, 14% visible
METAR KJKJ 112131Z AUTO 25003KT 10SM OVC026 M10/M16 A3022 RMK AO2
Pressure 30.22 in
Visibility 10.0 miles
Clouds Overcast 2600 ft
Windchill 8 °F
Dew Point 3 °F
Humidity 62%
Rainfall 0.00 in
Snow Depth Not available.
7:37 AM 5:44 PM
Waxing Crescent, 14% visible
METAR KJKJ 112131Z AUTO 25003KT 10SM OVC026 M10/M16 A3022 RMK AO2

10-Day Weather Forecast

Almanac

Astronomy

Feb. 11, 2016 Rise Set
Actual Time
Civil Twilight
Nautical Twilight
Astronomical Twilight
Moon
Length of Visible Light
Length of Day
Tomorrow will be .
, % of the Moon is Illuminated

Today's Extremes

State Highs State Lows

Community

WunderPhotos

Upload Photos

1,892,165 photos uploaded!

WunderBlog® & News

Nearby

Air Quality

  Air Quality AQ Index Pollutant
Not available.

Snow Depth

Station Depth Elevation

Earthquake Activity

City Distance Mag. Time & Date
Minimum magnitude displayed is 2.5.

Coastal Water Temperatures

Place Temperature

Stations

Nearby Weather Stations

Station Location Temp. Windchill Dew Point Humidity Wind Precip. Elev Updated Type
                   

Watches & Warnings

There are currently no watches in effect.